sensor_id;sensor_type;location;lat;lon;timestamp;temperature;humidity
66920;DHT22;53831;52.090;17.026;2023-07-24T00:00:37;18.60;99.90
66920;DHT22;53831;52.090;17.026;2023-07-24T00:01:39;18.60;99.90
66920;DHT22;53831;52.090;17.026;2023-07-24T00:02:40;18.60;99.90
66920;DHT22;53831;52.090;17.026;2023-07-24T00:03:41;18.60;99.90
66920;DHT22;53831;52.090;17.026;2023-07-24T00:04:41;18.60;99.90
66920;DHT22;53831;52.090;17.026;2023-07-24T00:05:42;18.60;99.90
66920;DHT22;53831;52.090;17.026;2023-07-24T00:06:42;18.60;99.90
66920;DHT22;53831;52.090;17.026;2023-07-24T00:07:43;18.60;99.90
66920;DHT22;53831;52.090;17.026;2023-07-24T00:08:43;18.60;99.90
66920;DHT22;53831;52.090;17.026;2023-07-24T00:09:44;18.60;99.90
66920;DHT22;53831;52.090;17.026;2023-07-24T00:10:44;18.60;99.90
66920;DHT22;53831;52.090;17.026;2023-07-24T00:11:45;18.60;99.90
66920;DHT22;53831;52.090;17.026;2023-07-24T00:12:45;18.50;99.90
66920;DHT22;53831;52.090;17.026;2023-07-24T00:13:46;18.50;99.90
66920;DHT22;53831;52.090;17.026;2023-07-24T00:14:46;18.50;99.90
66920;DHT22;53831;52.090;17.026;2023-07-24T00:15:47;18.50;99.90
66920;DHT22;53831;52.090;17.026;2023-07-24T00:16:48;18.60;99.90
66920;DHT22;53831;52.090;17.026;2023-07-24T00:17:48;18.60;99.90
66920;DHT22;53831;52.090;17.026;2023-07-24T00:18:49;18.50;99.90
66920;DHT22;53831;52.090;17.026;2023-07-24T00:19:49;18.50;99.90
66920;DHT22;53831;52.090;17.026;2023-07-24T00:20:50;18.50;99.90
66920;DHT22;53831;52.090;17.026;2023-07-24T00:21:51;18.50;99.90
66920;DHT22;53831;52.090;17.026;2023-07-24T00:22:51;18.50;99.90
66920;DHT22;53831;52.090;17.026;2023-07-24T00:23:52;18.40;99.90
66920;DHT22;53831;52.090;17.026;2023-07-24T00:24:52;18.40;99.90
66920;DHT22;53831;52.090;17.026;2023-07-24T00:25:53;18.30;99.90
66920;DHT22;53831;52.090;17.026;2023-07-24T00:26:54;18.30;99.90
66920;DHT22;53831;52.090;17.026;2023-07-24T00:27:54;18.40;99.90
66920;DHT22;53831;52.090;17.026;2023-07-24T00:28:55;18.40;99.90
66920;DHT22;53831;52.090;17.026;2023-07-24T00:29:55;18.40;99.90
66920;DHT22;53831;52.090;17.026;2023-07-24T00:30:56;18.40;99.90
66920;DHT22;53831;52.090;17.026;2023-07-24T00:31:57;18.30;99.90
66920;DHT22;53831;52.090;17.026;2023-07-24T00:32:57;18.30;99.90
66920;DHT22;53831;52.090;17.026;2023-07-24T00:33:58;18.30;99.90
66920;DHT22;53831;52.090;17.026;2023-07-24T00:35:00;18.30;99.90
66920;DHT22;53831;52.090;17.026;2023-07-24T00:36:01;18.30;99.90
66920;DHT22;53831;52.090;17.026;2023-07-24T00:37:02;18.30;99.90
66920;DHT22;53831;52.090;17.026;2023-07-24T00:38:03;18.30;99.90
66920;DHT22;53831;52.090;17.026;2023-07-24T00:39:03;18.30;99.90
66920;DHT22;53831;52.090;17.026;2023-07-24T00:40:05;18.20;99.90
66920;DHT22;53831;52.090;17.026;2023-07-24T00:41:06;18.10;99.90
66920;DHT22;53831;52.090;17.026;2023-07-24T00:42:07;18.10;99.90
66920;DHT22;53831;52.090;17.026;2023-07-24T00:43:07;18.10;99.90
66920;DHT22;53831;52.090;17.026;2023-07-24T00:44:09;18.10;99.90
66920;DHT22;53831;52.090;17.026;2023-07-24T00:45:10;18.10;99.90
66920;DHT22;53831;52.090;17.026;2023-07-24T00:46:10;18.10;99.90
66920;DHT22;53831;52.090;17.026;2023-07-24T00:47:11;18.10;99.90
66920;DHT22;53831;52.090;17.026;2023-07-24T00:48:12;18.10;99.90
66920;DHT22;53831;52.090;17.026;2023-07-24T00:49:13;18.00;99.90
66920;DHT22;53831;52.090;17.026;2023-07-24T00:50:14;18.10;99.90
66920;DHT22;53831;52.090;17.026;2023-07-24T00:51:14;18.10;99.90
66920;DHT22;53831;52.090;17.026;2023-07-24T00:52:15;18.10;99.90
66920;DHT22;53831;52.090;17.026;2023-07-24T00:53:16;18.10;99.90
66920;DHT22;53831;52.090;17.026;2023-07-24T00:54:17;18.10;99.90
66920;DHT22;53831;52.090;17.026;2023-07-24T00:55:18;18.10;99.90
66920;DHT22;53831;52.090;17.026;2023-07-24T00:56:19;18.10;99.90
66920;DHT22;53831;52.090;17.026;2023-07-24T00:57:21;18.10;99.90
66920;DHT22;53831;52.090;17.026;2023-07-24T00:58:21;18.10;99.90
66920;DHT22;53831;52.090;17.026;2023-07-24T00:59:22;18.20;99.90
66920;DHT22;53831;52.090;17.026;2023-07-24T01:00:23;18.20;99.90
66920;DHT22;53831;52.090;17.026;2023-07-24T01:01:23;18.20;99.90
66920;DHT22;53831;52.090;17.026;2023-07-24T01:02:25;18.30;99.90
66920;DHT22;53831;52.090;17.026;2023-07-24T01:03:27;18.30;99.90
66920;DHT22;53831;52.090;17.026;2023-07-24T01:04:31;18.30;99.90
66920;DHT22;53831;52.090;17.026;2023-07-24T01:05:32;18.30;99.90
66920;DHT22;53831;52.090;17.026;2023-07-24T01:06:32;18.30;99.90
66920;DHT22;53831;52.090;17.026;2023-07-24T01:07:33;18.30;99.90
66920;DHT22;53831;52.090;17.026;2023-07-24T01:08:34;18.40;99.90
66920;DHT22;53831;52.090;17.026;2023-07-24T01:09:34;18.40;99.90
66920;DHT22;53831;52.090;17.026;2023-07-24T01:10:35;18.40;99.90
66920;DHT22;53831;52.090;17.026;2023-07-24T01:11:36;18.40;99.90
66920;DHT22;53831;52.090;17.026;2023-07-24T01:12:58;18.40;99.90
66920;DHT22;53831;52.090;17.026;2023-07-24T01:14:11;18.40;99.90
66920;DHT22;53831;52.090;17.026;2023-07-24T01:15:16;18.40;99.90
66920;DHT22;53831;52.090;17.026;2023-07-24T01:16:19;18.50;99.90
66920;DHT22;53831;52.090;17.026;2023-07-24T01:17:23;18.40;99.90
66920;DHT22;53831;52.090;17.026;2023-07-24T01:18:24;18.40;99.90
66920;DHT22;53831;52.090;17.026;2023-07-24T01:19:37;18.40;99.90
66920;DHT22;53831;52.090;17.026;2023-07-24T01:20:43;18.40;99.90
66920;DHT22;53831;52.090;17.026;2023-07-24T01:22:08;18.40;99.90
66920;DHT22;53831;52.090;17.026;2023-07-24T01:24:16;18.50;99.90
66920;DHT22;53831;52.090;17.026;2023-07-24T01:26:21;18.40;99.90
66920;DHT22;53831;52.090;17.026;2023-07-24T01:27:25;18.40;99.90
66920;DHT22;53831;52.090;17.026;2023-07-24T01:28:26;18.50;99.90
66920;DHT22;53831;52.090;17.026;2023-07-24T01:29:27;18.50;99.90
66920;DHT22;53831;52.090;17.026;2023-07-24T01:30:27;18.40;99.90
66920;DHT22;53831;52.090;17.026;2023-07-24T01:31:28;18.40;99.90
66920;DHT22;53831;52.090;17.026;2023-07-24T01:32:28;18.40;99.90
66920;DHT22;53831;52.090;17.026;2023-07-24T01:33:29;18.40;99.90
66920;DHT22;53831;52.090;17.026;2023-07-24T01:34:32;18.40;99.90
66920;DHT22;53831;52.090;17.026;2023-07-24T01:35:32;18.40;99.90
66920;DHT22;53831;52.090;17.026;2023-07-24T01:36:33;18.40;99.90
66920;DHT22;53831;52.090;17.026;2023-07-24T01:37:34;18.50;99.90
66920;DHT22;53831;52.090;17.026;2023-07-24T01:38:35;18.50;99.90
66920;DHT22;53831;52.090;17.026;2023-07-24T01:39:36;18.40;99.90
66920;DHT22;53831;52.090;17.026;2023-07-24T01:40:38;18.40;99.90
66920;DHT22;53831;52.090;17.026;2023-07-24T01:41:39;18.50;99.90
66920;DHT22;53831;52.090;17.026;2023-07-24T01:42:39;18.50;99.90
66920;DHT22;53831;52.090;17.026;2023-07-24T01:43:40;18.50;99.90
66920;DHT22;53831;52.090;17.026;2023-07-24T01:44:41;18.50;99.90
66920;DHT22;53831;52.090;17.026;2023-07-24T01:45:42;18.50;99.90
66920;DHT22;53831;52.090;17.026;2023-07-24T01:46:42;18.60;99.90
66920;DHT22;53831;52.090;17.026;2023-07-24T01:47:43;18.60;99.90
66920;DHT22;53831;52.090;17.026;2023-07-24T01:48:43;18.60;99.90
66920;DHT22;53831;52.090;17.026;2023-07-24T01:49:44;18.60;99.90
66920;DHT22;53831;52.090;17.026;2023-07-24T01:50:45;18.60;99.90
66920;DHT22;53831;52.090;17.026;2023-07-24T01:51:45;18.60;99.90
66920;DHT22;53831;52.090;17.026;2023-07-24T01:52:46;18.60;99.90
66920;DHT22;53831;52.090;17.026;2023-07-24T01:53:46;18.60;99.90
66920;DHT22;53831;52.090;17.026;2023-07-24T01:54:47;18.60;99.90
66920;DHT22;53831;52.090;17.026;2023-07-24T01:55:47;18.60;99.90
66920;DHT22;53831;52.090;17.026;2023-07-24T01:56:48;18.70;99.90
66920;DHT22;53831;52.090;17.026;2023-07-24T01:57:49;18.70;99.90
66920;DHT22;53831;52.090;17.026;2023-07-24T01:58:49;18.60;99.90
66920;DHT22;53831;52.090;17.026;2023-07-24T01:59:50;18.60;99.90
66920;DHT22;53831;52.090;17.026;2023-07-24T02:00:50;18.60;99.90
66920;DHT22;53831;52.090;17.026;2023-07-24T02:01:51;18.60;99.90
66920;DHT22;53831;52.090;17.026;2023-07-24T02:02:52;18.60;99.90
66920;DHT22;53831;52.090;17.026;2023-07-24T02:03:53;18.60;99.90
66920;DHT22;53831;52.090;17.026;2023-07-24T02:04:53;18.60;99.90
66920;DHT22;53831;52.090;17.026;2023-07-24T02:05:54;18.60;99.90
66920;DHT22;53831;52.090;17.026;2023-07-24T02:06:54;18.60;99.90
66920;DHT22;53831;52.090;17.026;2023-07-24T02:07:55;18.50;99.90
66920;DHT22;53831;52.090;17.026;2023-07-24T02:08:56;18.50;99.90
66920;DHT22;53831;52.090;17.026;2023-07-24T02:09:56;18.50;99.90
66920;DHT22;53831;52.090;17.026;2023-07-24T02:10:57;18.50;99.90
66920;DHT22;53831;52.090;17.026;2023-07-24T02:11:59;18.50;99.90
66920;DHT22;53831;52.090;17.026;2023-07-24T02:13:02;18.40;99.90
66920;DHT22;53831;52.090;17.026;2023-07-24T02:14:03;18.50;99.90
66920;DHT22;53831;52.090;17.026;2023-07-24T02:15:03;18.50;99.90
66920;DHT22;53831;52.090;17.026;2023-07-24T02:16:04;18.50;99.90
66920;DHT22;53831;52.090;17.026;2023-07-24T02:17:05;18.50;99.90
66920;DHT22;53831;52.090;17.026;2023-07-24T02:18:05;18.40;99.90
66920;DHT22;53831;52.090;17.026;2023-07-24T02:19:06;18.40;99.90
66920;DHT22;53831;52.090;17.026;2023-07-24T02:20:07;18.50;99.90
66920;DHT22;53831;52.090;17.026;2023-07-24T02:21:08;18.50;99.90
66920;DHT22;53831;52.090;17.026;2023-07-24T02:22:09;18.50;99.90
66920;DHT22;53831;52.090;17.026;2023-07-24T02:23:09;18.50;99.90
66920;DHT22;53831;52.090;17.026;2023-07-24T02:24:10;18.50;99.90
66920;DHT22;53831;52.090;17.026;2023-07-24T02:25:10;18.50;99.90
66920;DHT22;53831;52.090;17.026;2023-07-24T02:26:11;18.50;99.90
66920;DHT22;53831;52.090;17.026;2023-07-24T02:27:12;18.50;99.90
66920;DHT22;53831;52.090;17.026;2023-07-24T02:28:14;18.40;99.90
66920;DHT22;53831;52.090;17.026;2023-07-24T02:29:15;18.40;99.90
66920;DHT22;53831;52.090;17.026;2023-07-24T02:30:16;18.50;99.90
66920;DHT22;53831;52.090;17.026;2023-07-24T02:31:17;18.40;99.90
66920;DHT22;53831;52.090;17.026;2023-07-24T02:32:18;18.40;99.90
66920;DHT22;53831;52.090;17.026;2023-07-24T02:33:24;18.50;99.90
66920;DHT22;53831;52.090;17.026;2023-07-24T02:34:24;18.50;99.90
66920;DHT22;53831;52.090;17.026;2023-07-24T02:35:26;18.50;99.90
66920;DHT22;53831;52.090;17.026;2023-07-24T02:36:27;18.50;99.90
66920;DHT22;53831;52.090;17.026;2023-07-24T02:37:27;18.50;99.90
66920;DHT22;53831;52.090;17.026;2023-07-24T02:38:28;18.50;99.90
66920;DHT22;53831;52.090;17.026;2023-07-24T02:39:28;18.50;99.90
66920;DHT22;53831;52.090;17.026;2023-07-24T02:40:29;18.50;99.90
66920;DHT22;53831;52.090;17.026;2023-07-24T02:41:29;18.60;99.90
66920;DHT22;53831;52.090;17.026;2023-07-24T02:42:31;18.60;99.90
66920;DHT22;53831;52.090;17.026;2023-07-24T02:43:32;18.60;99.90
66920;DHT22;53831;52.090;17.026;2023-07-24T02:44:33;18.60;99.90
66920;DHT22;53831;52.090;17.026;2023-07-24T02:45:36;18.60;99.90
66920;DHT22;53831;52.090;17.026;2023-07-24T02:46:37;18.60;99.90
66920;DHT22;53831;52.090;17.026;2023-07-24T02:47:38;18.60;99.90
66920;DHT22;53831;52.090;17.026;2023-07-24T02:48:39;18.60;99.90
66920;DHT22;53831;52.090;17.026;2023-07-24T02:49:40;18.60;99.90
66920;DHT22;53831;52.090;17.026;2023-07-24T02:50:40;18.60;99.90
66920;DHT22;53831;52.090;17.026;2023-07-24T02:51:41;18.70;99.90
66920;DHT22;53831;52.090;17.026;2023-07-24T02:52:42;18.60;99.90
66920;DHT22;53831;52.090;17.026;2023-07-24T02:53:42;18.70;99.90
66920;DHT22;53831;52.090;17.026;2023-07-24T02:54:43;18.70;99.90
66920;DHT22;53831;52.090;17.026;2023-07-24T02:55:43;18.70;99.90
66920;DHT22;53831;52.090;17.026;2023-07-24T02:56:44;18.70;99.90
66920;DHT22;53831;52.090;17.026;2023-07-24T02:57:45;18.70;99.90
66920;DHT22;53831;52.090;17.026;2023-07-24T02:58:45;18.70;99.90
66920;DHT22;53831;52.090;17.026;2023-07-24T02:59:46;18.70;99.90
66920;DHT22;53831;52.090;17.026;2023-07-24T03:00:47;18.80;99.90
66920;DHT22;53831;52.090;17.026;2023-07-24T03:01:47;18.80;99.90
66920;DHT22;53831;52.090;17.026;2023-07-24T03:02:48;18.80;99.90
66920;DHT22;53831;52.090;17.026;2023-07-24T03:03:49;18.80;99.90
66920;DHT22;53831;52.090;17.026;2023-07-24T03:04:49;18.80;99.90
66920;DHT22;53831;52.090;17.026;2023-07-24T03:05:50;18.80;99.90
66920;DHT22;53831;52.090;17.026;2023-07-24T03:06:51;18.80;99.90
66920;DHT22;53831;52.090;17.026;2023-07-24T03:07:51;18.80;99.90
66920;DHT22;53831;52.090;17.026;2023-07-24T03:08:52;18.80;99.90
66920;DHT22;53831;52.090;17.026;2023-07-24T03:09:52;18.90;99.90
66920;DHT22;53831;52.090;17.026;2023-07-24T03:10:53;18.90;99.90
66920;DHT22;53831;52.090;17.026;2023-07-24T03:11:53;18.90;99.90
66920;DHT22;53831;52.090;17.026;2023-07-24T03:12:54;18.90;99.90
66920;DHT22;53831;52.090;17.026;2023-07-24T03:13:55;18.90;99.90
66920;DHT22;53831;52.090;17.026;2023-07-24T03:14:55;18.80;99.90
66920;DHT22;53831;52.090;17.026;2023-07-24T03:15:56;18.80;99.90
66920;DHT22;53831;52.090;17.026;2023-07-24T03:16:57;18.80;99.90
66920;DHT22;53831;52.090;17.026;2023-07-24T03:17:58;18.70;99.90
66920;DHT22;53831;52.090;17.026;2023-07-24T03:18:58;18.70;99.90
66920;DHT22;53831;52.090;17.026;2023-07-24T03:19:59;18.70;99.90
66920;DHT22;53831;52.090;17.026;2023-07-24T03:21:08;18.60;99.90
66920;DHT22;53831;52.090;17.026;2023-07-24T03:22:09;18.60;99.90
66920;DHT22;53831;52.090;17.026;2023-07-24T03:23:09;18.60;99.90
66920;DHT22;53831;52.090;17.026;2023-07-24T03:24:10;18.60;99.90
66920;DHT22;53831;52.090;17.026;2023-07-24T03:25:10;18.50;99.90
66920;DHT22;53831;52.090;17.026;2023-07-24T03:26:11;18.50;99.90
66920;DHT22;53831;52.090;17.026;2023-07-24T03:27:12;18.50;99.90
66920;DHT22;53831;52.090;17.026;2023-07-24T03:28:13;18.40;99.90
66920;DHT22;53831;52.090;17.026;2023-07-24T03:29:14;18.40;99.90
66920;DHT22;53831;52.090;17.026;2023-07-24T03:30:14;18.50;99.90
66920;DHT22;53831;52.090;17.026;2023-07-24T03:31:15;18.50;99.90
66920;DHT22;53831;52.090;17.026;2023-07-24T03:32:15;18.50;99.90
66920;DHT22;53831;52.090;17.026;2023-07-24T03:33:16;18.40;99.90
66920;DHT22;53831;52.090;17.026;2023-07-24T03:34:16;18.40;99.90
66920;DHT22;53831;52.090;17.026;2023-07-24T03:35:17;18.50;99.90
66920;DHT22;53831;52.090;17.026;2023-07-24T03:36:18;18.40;99.90
66920;DHT22;53831;52.090;17.026;2023-07-24T03:37:18;18.40;99.90
66920;DHT22;53831;52.090;17.026;2023-07-24T03:38:19;18.50;99.90
66920;DHT22;53831;52.090;17.026;2023-07-24T03:39:20;18.40;99.90
66920;DHT22;53831;52.090;17.026;2023-07-24T03:40:20;18.40;99.90
66920;DHT22;53831;52.090;17.026;2023-07-24T03:41:21;18.40;99.90
66920;DHT22;53831;52.090;17.026;2023-07-24T03:42:28;18.40;99.90
66920;DHT22;53831;52.090;17.026;2023-07-24T03:43:29;18.40;99.90
66920;DHT22;53831;52.090;17.026;2023-07-24T03:44:29;18.50;99.90
66920;DHT22;53831;52.090;17.026;2023-07-24T03:45:31;18.50;99.90
66920;DHT22;53831;52.090;17.026;2023-07-24T03:46:32;18.50;99.90
66920;DHT22;53831;52.090;17.026;2023-07-24T03:47:32;18.50;99.90
66920;DHT22;53831;52.090;17.026;2023-07-24T03:48:33;18.50;99.90
66920;DHT22;53831;52.090;17.026;2023-07-24T03:49:35;18.50;99.90
66920;DHT22;53831;52.090;17.026;2023-07-24T03:50:35;18.50;99.90
66920;DHT22;53831;52.090;17.026;2023-07-24T03:51:36;18.50;99.90
66920;DHT22;53831;52.090;17.026;2023-07-24T03:52:39;18.60;99.90
66920;DHT22;53831;52.090;17.026;2023-07-24T03:53:40;18.60;99.90
66920;DHT22;53831;52.090;17.026;2023-07-24T03:54:40;18.60;99.90
66920;DHT22;53831;52.090;17.026;2023-07-24T03:55:41;18.60;99.90
66920;DHT22;53831;52.090;17.026;2023-07-24T03:56:41;18.60;99.90
66920;DHT22;53831;52.090;17.026;2023-07-24T03:57:42;18.60;99.90
66920;DHT22;53831;52.090;17.026;2023-07-24T03:58:43;18.60;99.90
66920;DHT22;53831;52.090;17.026;2023-07-24T03:59:43;18.60;99.90
66920;DHT22;53831;52.090;17.026;2023-07-24T04:00:44;18.60;99.90
66920;DHT22;53831;52.090;17.026;2023-07-24T04:01:44;18.60;99.90
66920;DHT22;53831;52.090;17.026;2023-07-24T04:02:46;18.60;99.90
66920;DHT22;53831;52.090;17.026;2023-07-24T04:03:46;18.70;99.90
66920;DHT22;53831;52.090;17.026;2023-07-24T04:04:47;18.70;99.90
66920;DHT22;53831;52.090;17.026;2023-07-24T04:05:48;18.70;99.90
66920;DHT22;53831;52.090;17.026;2023-07-24T04:06:48;18.70;99.90
66920;DHT22;53831;52.090;17.026;2023-07-24T04:07:49;18.80;99.90
66920;DHT22;53831;52.090;17.026;2023-07-24T04:08:49;18.80;99.90
66920;DHT22;53831;52.090;17.026;2023-07-24T04:09:50;18.80;99.90
66920;DHT22;53831;52.090;17.026;2023-07-24T04:10:51;18.80;99.90
66920;DHT22;53831;52.090;17.026;2023-07-24T04:11:51;18.80;99.90
66920;DHT22;53831;52.090;17.026;2023-07-24T04:12:52;18.80;99.90
66920;DHT22;53831;52.090;17.026;2023-07-24T04:13:52;18.90;99.90
66920;DHT22;53831;52.090;17.026;2023-07-24T04:14:53;18.90;99.90
66920;DHT22;53831;52.090;17.026;2023-07-24T04:15:54;18.90;99.90
66920;DHT22;53831;52.090;17.026;2023-07-24T04:16:54;18.90;99.90
66920;DHT22;53831;52.090;17.026;2023-07-24T04:17:57;18.90;99.90
66920;DHT22;53831;52.090;17.026;2023-07-24T04:18:58;19.00;99.90
66920;DHT22;53831;52.090;17.026;2023-07-24T04:19:59;18.90;99.90
66920;DHT22;53831;52.090;17.026;2023-07-24T04:21:00;18.90;99.90
66920;DHT22;53831;52.090;17.026;2023-07-24T04:22:01;19.00;99.90
66920;DHT22;53831;52.090;17.026;2023-07-24T04:23:01;19.00;99.90
66920;DHT22;53831;52.090;17.026;2023-07-24T04:24:02;19.00;99.90
66920;DHT22;53831;52.090;17.026;2023-07-24T04:25:03;19.10;99.90
66920;DHT22;53831;52.090;17.026;2023-07-24T04:26:03;19.10;99.90
66920;DHT22;53831;52.090;17.026;2023-07-24T04:27:04;19.10;99.90
66920;DHT22;53831;52.090;17.026;2023-07-24T04:28:05;19.10;99.90
66920;DHT22;53831;52.090;17.026;2023-07-24T04:29:05;19.20;99.90
66920;DHT22;53831;52.090;17.026;2023-07-24T04:30:06;19.20;99.90
66920;DHT22;53831;52.090;17.026;2023-07-24T04:31:07;19.30;99.90
66920;DHT22;53831;52.090;17.026;2023-07-24T04:32:08;19.30;99.90
66920;DHT22;53831;52.090;17.026;2023-07-24T04:33:08;19.40;99.90
66920;DHT22;53831;52.090;17.026;2023-07-24T04:34:09;19.40;99.90
66920;DHT22;53831;52.090;17.026;2023-07-24T04:35:09;19.40;99.90
66920;DHT22;53831;52.090;17.026;2023-07-24T04:36:10;19.40;99.90
66920;DHT22;53831;52.090;17.026;2023-07-24T04:37:10;19.40;99.90
66920;DHT22;53831;52.090;17.026;2023-07-24T04:38:11;19.40;99.90
66920;DHT22;53831;52.090;17.026;2023-07-24T04:39:11;19.50;99.90
66920;DHT22;53831;52.090;17.026;2023-07-24T04:40:12;19.50;99.90
66920;DHT22;53831;52.090;17.026;2023-07-24T04:41:13;19.50;99.90
66920;DHT22;53831;52.090;17.026;2023-07-24T04:42:13;19.60;99.90
66920;DHT22;53831;52.090;17.026;2023-07-24T04:43:14;19.60;99.90
66920;DHT22;53831;52.090;17.026;2023-07-24T04:44:14;19.60;99.90
66920;DHT22;53831;52.090;17.026;2023-07-24T04:45:15;19.70;99.90
66920;DHT22;53831;52.090;17.026;2023-07-24T04:46:15;19.70;99.90
66920;DHT22;53831;52.090;17.026;2023-07-24T04:47:16;19.70;99.90
66920;DHT22;53831;52.090;17.026;2023-07-24T04:48:16;19.70;99.90
66920;DHT22;53831;52.090;17.026;2023-07-24T04:49:17;19.80;99.90
66920;DHT22;53831;52.090;17.026;2023-07-24T04:50:18;19.90;99.90
66920;DHT22;53831;52.090;17.026;2023-07-24T04:51:18;19.90;99.90
66920;DHT22;53831;52.090;17.026;2023-07-24T04:52:19;19.90;99.90
66920;DHT22;53831;52.090;17.026;2023-07-24T04:53:19;20.00;99.90
66920;DHT22;53831;52.090;17.026;2023-07-24T04:54:20;20.00;99.90
66920;DHT22;53831;52.090;17.026;2023-07-24T04:55:21;20.00;99.90
66920;DHT22;53831;52.090;17.026;2023-07-24T04:56:21;20.10;99.90
66920;DHT22;53831;52.090;17.026;2023-07-24T04:57:22;20.10;99.90
66920;DHT22;53831;52.090;17.026;2023-07-24T04:58:23;20.10;99.90
66920;DHT22;53831;52.090;17.026;2023-07-24T04:59:23;20.20;99.90
66920;DHT22;53831;52.090;17.026;2023-07-24T05:00:24;20.20;99.90
66920;DHT22;53831;52.090;17.026;2023-07-24T05:01:25;20.20;99.90
66920;DHT22;53831;52.090;17.026;2023-07-24T05:02:26;20.30;99.90
66920;DHT22;53831;52.090;17.026;2023-07-24T05:03:26;20.30;99.90
66920;DHT22;53831;52.090;17.026;2023-07-24T05:04:27;20.30;99.90
66920;DHT22;53831;52.090;17.026;2023-07-24T05:05:27;20.20;99.90
66920;DHT22;53831;52.090;17.026;2023-07-24T05:06:28;20.20;99.90
66920;DHT22;53831;52.090;17.026;2023-07-24T05:07:29;20.20;99.90
66920;DHT22;53831;52.090;17.026;2023-07-24T05:08:29;20.20;99.90
66920;DHT22;53831;52.090;17.026;2023-07-24T05:09:30;20.20;99.90
66920;DHT22;53831;52.090;17.026;2023-07-24T05:10:34;20.20;99.90
66920;DHT22;53831;52.090;17.026;2023-07-24T05:11:35;20.20;99.90
66920;DHT22;53831;52.090;17.026;2023-07-24T05:12:35;20.20;99.90
66920;DHT22;53831;52.090;17.026;2023-07-24T05:13:36;20.20;99.90
66920;DHT22;53831;52.090;17.026;2023-07-24T05:14:36;20.30;99.90
66920;DHT22;53831;52.090;17.026;2023-07-24T05:15:37;20.30;99.90
66920;DHT22;53831;52.090;17.026;2023-07-24T05:16:37;20.30;99.90
66920;DHT22;53831;52.090;17.026;2023-07-24T05:17:38;20.40;99.90
66920;DHT22;53831;52.090;17.026;2023-07-24T05:18:39;20.40;99.90
66920;DHT22;53831;52.090;17.026;2023-07-24T05:19:39;20.40;99.90
66920;DHT22;53831;52.090;17.026;2023-07-24T05:20:45;20.50;99.90
66920;DHT22;53831;52.090;17.026;2023-07-24T05:21:47;20.50;99.90
66920;DHT22;53831;52.090;17.026;2023-07-24T05:22:47;20.50;99.90
66920;DHT22;53831;52.090;17.026;2023-07-24T05:23:48;20.50;99.90
66920;DHT22;53831;52.090;17.026;2023-07-24T05:24:48;20.60;99.90
66920;DHT22;53831;52.090;17.026;2023-07-24T05:25:56;20.60;99.90
66920;DHT22;53831;52.090;17.026;2023-07-24T05:26:58;20.70;99.90
66920;DHT22;53831;52.090;17.026;2023-07-24T05:27:58;20.70;99.90
66920;DHT22;53831;52.090;17.026;2023-07-24T05:28:59;20.70;99.90
66920;DHT22;53831;52.090;17.026;2023-07-24T05:29:59;20.80;99.90
66920;DHT22;53831;52.090;17.026;2023-07-24T05:31:03;20.70;99.90
66920;DHT22;53831;52.090;17.026;2023-07-24T05:32:03;20.70;99.90
66920;DHT22;53831;52.090;17.026;2023-07-24T05:33:04;20.70;99.90
66920;DHT22;53831;52.090;17.026;2023-07-24T05:34:05;20.70;99.90
66920;DHT22;53831;52.090;17.026;2023-07-24T05:35:06;20.70;99.90
66920;DHT22;53831;52.090;17.026;2023-07-24T05:36:06;20.80;99.90
66920;DHT22;53831;52.090;17.026;2023-07-24T05:37:07;20.80;99.90
66920;DHT22;53831;52.090;17.026;2023-07-24T05:38:08;20.80;99.90
66920;DHT22;53831;52.090;17.026;2023-07-24T05:39:08;20.80;99.90
66920;DHT22;53831;52.090;17.026;2023-07-24T05:40:09;20.80;99.90
66920;DHT22;53831;52.090;17.026;2023-07-24T05:41:09;20.90;99.90
66920;DHT22;53831;52.090;17.026;2023-07-24T05:42:10;21.00;99.90
66920;DHT22;53831;52.090;17.026;2023-07-24T05:43:11;20.90;99.90
66920;DHT22;53831;52.090;17.026;2023-07-24T05:44:11;20.80;99.90
66920;DHT22;53831;52.090;17.026;2023-07-24T05:45:12;20.80;99.90
66920;DHT22;53831;52.090;17.026;2023-07-24T05:46:12;20.80;99.90
66920;DHT22;53831;52.090;17.026;2023-07-24T05:47:13;20.90;99.90
66920;DHT22;53831;52.090;17.026;2023-07-24T05:48:14;20.90;99.90
66920;DHT22;53831;52.090;17.026;2023-07-24T05:49:14;20.90;99.90
66920;DHT22;53831;52.090;17.026;2023-07-24T05:50:15;20.90;99.90
66920;DHT22;53831;52.090;17.026;2023-07-24T05:51:15;20.90;99.90
66920;DHT22;53831;52.090;17.026;2023-07-24T05:52:16;20.90;99.90
66920;DHT22;53831;52.090;17.026;2023-07-24T05:53:17;20.90;99.90
66920;DHT22;53831;52.090;17.026;2023-07-24T05:54:17;20.90;99.90
66920;DHT22;53831;52.090;17.026;2023-07-24T05:55:18;20.90;99.90
66920;DHT22;53831;52.090;17.026;2023-07-24T05:56:19;20.90;99.90
66920;DHT22;53831;52.090;17.026;2023-07-24T05:57:19;21.00;99.90
66920;DHT22;53831;52.090;17.026;2023-07-24T05:58:20;21.00;99.90
66920;DHT22;53831;52.090;17.026;2023-07-24T05:59:20;21.00;99.90
66920;DHT22;53831;52.090;17.026;2023-07-24T06:00:21;21.00;99.90
66920;DHT22;53831;52.090;17.026;2023-07-24T06:01:22;21.10;99.90
66920;DHT22;53831;52.090;17.026;2023-07-24T06:02:22;21.10;99.90
66920;DHT22;53831;52.090;17.026;2023-07-24T06:03:23;21.10;99.90
66920;DHT22;53831;52.090;17.026;2023-07-24T06:04:24;21.10;99.90
66920;DHT22;53831;52.090;17.026;2023-07-24T06:05:24;21.10;99.90
66920;DHT22;53831;52.090;17.026;2023-07-24T06:06:25;21.10;99.90
66920;DHT22;53831;52.090;17.026;2023-07-24T06:07:26;21.10;99.90
66920;DHT22;53831;52.090;17.026;2023-07-24T06:08:26;21.10;99.90
66920;DHT22;53831;52.090;17.026;2023-07-24T06:09:27;21.10;99.90
66920;DHT22;53831;52.090;17.026;2023-07-24T06:10:27;21.10;99.90
66920;DHT22;53831;52.090;17.026;2023-07-24T06:11:28;21.20;99.90
66920;DHT22;53831;52.090;17.026;2023-07-24T06:12:29;21.20;99.90
66920;DHT22;53831;52.090;17.026;2023-07-24T06:13:29;21.10;99.90
66920;DHT22;53831;52.090;17.026;2023-07-24T06:14:30;21.20;99.90
66920;DHT22;53831;52.090;17.026;2023-07-24T06:15:30;21.00;99.90
66920;DHT22;53831;52.090;17.026;2023-07-24T06:16:32;21.10;99.90
66920;DHT22;53831;52.090;17.026;2023-07-24T06:17:32;21.20;99.90
66920;DHT22;53831;52.090;17.026;2023-07-24T06:18:33;21.10;99.90
66920;DHT22;53831;52.090;17.026;2023-07-24T06:19:34;21.10;99.90
66920;DHT22;53831;52.090;17.026;2023-07-24T06:20:35;21.00;99.90
66920;DHT22;53831;52.090;17.026;2023-07-24T06:21:35;21.00;99.90